sensor_id;sensor_type;location;lat;lon;timestamp;P1;durP1;ratioP1;P2;durP2;ratioP2
4055;SDS011;2043;52.184;8.690;2023-05-17T00:00:18;13.80;;;4.30;;
4055;SDS011;2043;52.184;8.690;2023-05-17T00:02:44;9.13;;;4.03;;
4055;SDS011;2043;52.184;8.690;2023-05-17T00:05:11;11.57;;;4.10;;
4055;SDS011;2043;52.184;8.690;2023-05-17T00:07:38;17.40;;;4.03;;
4055;SDS011;2043;52.184;8.690;2023-05-17T00:10:05;8.47;;;3.50;;
4055;SDS011;2043;52.184;8.690;2023-05-17T00:12:32;10.47;;;4.03;;
4055;SDS011;2043;52.184;8.690;2023-05-17T00:14:59;11.50;;;3.80;;
4055;SDS011;2043;52.184;8.690;2023-05-17T00:17:26;12.97;;;4.23;;
4055;SDS011;2043;52.184;8.690;2023-05-17T00:19:53;9.17;;;3.57;;
4055;SDS011;2043;52.184;8.690;2023-05-17T00:22:20;13.80;;;4.53;;
4055;SDS011;2043;52.184;8.690;2023-05-17T00:24:47;11.43;;;3.90;;
4055;SDS011;2043;52.184;8.690;2023-05-17T00:27:14;16.93;;;4.10;;
4055;SDS011;2043;52.184;8.690;2023-05-17T00:29:40;12.10;;;4.40;;
4055;SDS011;2043;52.184;8.690;2023-05-17T00:32:07;11.30;;;4.03;;
4055;SDS011;2043;52.184;8.690;2023-05-17T00:34:34;11.73;;;4.33;;
4055;SDS011;2043;52.184;8.690;2023-05-17T00:37:01;16.63;;;4.47;;
4055;SDS011;2043;52.184;8.690;2023-05-17T00:39:28;17.63;;;4.37;;
4055;SDS011;2043;52.184;8.690;2023-05-17T00:41:55;11.07;;;3.80;;
4055;SDS011;2043;52.184;8.690;2023-05-17T00:44:21;9.73;;;3.73;;
4055;SDS011;2043;52.184;8.690;2023-05-17T00:46:48;9.50;;;4.67;;
4055;SDS011;2043;52.184;8.690;2023-05-17T00:49:15;17.23;;;4.47;;
4055;SDS011;2043;52.184;8.690;2023-05-17T00:51:43;10.07;;;4.30;;
4055;SDS011;2043;52.184;8.690;2023-05-17T00:54:11;12.73;;;4.20;;
4055;SDS011;2043;52.184;8.690;2023-05-17T00:56:39;11.83;;;4.43;;
4055;SDS011;2043;52.184;8.690;2023-05-17T00:59:06;13.50;;;4.73;;
4055;SDS011;2043;52.184;8.690;2023-05-17T01:01:33;14.27;;;5.07;;
4055;SDS011;2043;52.184;8.690;2023-05-17T01:04:02;15.30;;;4.83;;
4055;SDS011;2043;52.184;8.690;2023-05-17T01:06:29;14.43;;;4.30;;
4055;SDS011;2043;52.184;8.690;2023-05-17T01:08:56;13.73;;;4.97;;
4055;SDS011;2043;52.184;8.690;2023-05-17T01:27:25;17.37;;;4.63;;
4055;SDS011;2043;52.184;8.690;2023-05-17T01:29:55;21.83;;;5.00;;
4055;SDS011;2043;52.184;8.690;2023-05-17T01:32:23;19.53;;;4.63;;
4055;SDS011;2043;52.184;8.690;2023-05-17T01:34:50;10.90;;;5.07;;
4055;SDS011;2043;52.184;8.690;2023-05-17T01:37:17;15.00;;;5.47;;
4055;SDS011;2043;52.184;8.690;2023-05-17T01:39:44;22.30;;;5.60;;
4055;SDS011;2043;52.184;8.690;2023-05-17T01:44:49;15.77;;;5.40;;
4055;SDS011;2043;52.184;8.690;2023-05-17T01:47:38;13.90;;;4.93;;
4055;SDS011;2043;52.184;8.690;2023-05-17T01:50:14;16.50;;;5.27;;
4055;SDS011;2043;52.184;8.690;2023-05-17T01:52:49;23.53;;;5.03;;
4055;SDS011;2043;52.184;8.690;2023-05-17T01:55:25;14.53;;;5.33;;
4055;SDS011;2043;52.184;8.690;2023-05-17T01:57:59;16.53;;;5.63;;
4055;SDS011;2043;52.184;8.690;2023-05-17T02:00:28;14.33;;;4.53;;
4055;SDS011;2043;52.184;8.690;2023-05-17T02:02:56;22.50;;;5.60;;
4055;SDS011;2043;52.184;8.690;2023-05-17T02:05:23;13.37;;;4.93;;
4055;SDS011;2043;52.184;8.690;2023-05-17T02:07:53;23.30;;;5.20;;
4055;SDS011;2043;52.184;8.690;2023-05-17T02:10:20;16.83;;;5.40;;
4055;SDS011;2043;52.184;8.690;2023-05-17T02:12:46;21.80;;;6.07;;
4055;SDS011;2043;52.184;8.690;2023-05-17T02:15:13;18.57;;;6.20;;
4055;SDS011;2043;52.184;8.690;2023-05-17T02:17:41;17.67;;;5.40;;
4055;SDS011;2043;52.184;8.690;2023-05-17T02:20:08;16.67;;;5.63;;
4055;SDS011;2043;52.184;8.690;2023-05-17T02:22:36;24.47;;;6.80;;
4055;SDS011;2043;52.184;8.690;2023-05-17T02:25:04;12.83;;;5.27;;
4055;SDS011;2043;52.184;8.690;2023-05-17T02:27:32;16.97;;;5.67;;
4055;SDS011;2043;52.184;8.690;2023-05-17T02:29:59;15.17;;;5.27;;
4055;SDS011;2043;52.184;8.690;2023-05-17T02:32:27;12.70;;;5.00;;
4055;SDS011;2043;52.184;8.690;2023-05-17T02:34:54;18.93;;;5.50;;
4055;SDS011;2043;52.184;8.690;2023-05-17T02:37:21;20.83;;;5.83;;
4055;SDS011;2043;52.184;8.690;2023-05-17T02:39:48;20.00;;;5.70;;
4055;SDS011;2043;52.184;8.690;2023-05-17T02:42:15;21.43;;;5.50;;
4055;SDS011;2043;52.184;8.690;2023-05-17T02:44:42;29.23;;;6.30;;
4055;SDS011;2043;52.184;8.690;2023-05-17T02:47:09;23.60;;;6.60;;
4055;SDS011;2043;52.184;8.690;2023-05-17T02:49:36;22.37;;;5.57;;
4055;SDS011;2043;52.184;8.690;2023-05-17T02:52:03;22.23;;;5.13;;
4055;SDS011;2043;52.184;8.690;2023-05-17T02:54:30;19.50;;;5.70;;
4055;SDS011;2043;52.184;8.690;2023-05-17T02:56:57;20.50;;;5.93;;
4055;SDS011;2043;52.184;8.690;2023-05-17T02:59:24;21.60;;;5.93;;
4055;SDS011;2043;52.184;8.690;2023-05-17T03:01:51;20.03;;;5.70;;
4055;SDS011;2043;52.184;8.690;2023-05-17T03:04:17;19.23;;;5.87;;
4055;SDS011;2043;52.184;8.690;2023-05-17T03:06:45;22.80;;;6.20;;
4055;SDS011;2043;52.184;8.690;2023-05-17T03:09:12;29.43;;;6.90;;
4055;SDS011;2043;52.184;8.690;2023-05-17T03:11:39;33.60;;;7.70;;
4055;SDS011;2043;52.184;8.690;2023-05-17T03:14:06;20.03;;;6.27;;
4055;SDS011;2043;52.184;8.690;2023-05-17T03:16:33;26.87;;;6.37;;
4055;SDS011;2043;52.184;8.690;2023-05-17T03:19:00;22.57;;;6.30;;
4055;SDS011;2043;52.184;8.690;2023-05-17T03:21:27;16.93;;;5.70;;
4055;SDS011;2043;52.184;8.690;2023-05-17T03:23:54;19.10;;;5.60;;
4055;SDS011;2043;52.184;8.690;2023-05-17T03:26:21;19.90;;;6.27;;
4055;SDS011;2043;52.184;8.690;2023-05-17T03:28:49;13.70;;;5.37;;
4055;SDS011;2043;52.184;8.690;2023-05-17T03:31:17;21.73;;;6.30;;
4055;SDS011;2043;52.184;8.690;2023-05-17T03:33:44;17.60;;;6.57;;
4055;SDS011;2043;52.184;8.690;2023-05-17T03:36:11;23.13;;;6.80;;
4055;SDS011;2043;52.184;8.690;2023-05-17T03:38:38;26.83;;;6.50;;
4055;SDS011;2043;52.184;8.690;2023-05-17T03:41:05;30.90;;;7.03;;
4055;SDS011;2043;52.184;8.690;2023-05-17T03:43:32;23.20;;;5.57;;
4055;SDS011;2043;52.184;8.690;2023-05-17T03:45:59;28.33;;;7.90;;
4055;SDS011;2043;52.184;8.690;2023-05-17T03:48:25;23.30;;;6.57;;
4055;SDS011;2043;52.184;8.690;2023-05-17T03:50:53;16.33;;;6.30;;
4055;SDS011;2043;52.184;8.690;2023-05-17T03:53:20;17.07;;;6.00;;
4055;SDS011;2043;52.184;8.690;2023-05-17T03:55:47;17.40;;;5.90;;
4055;SDS011;2043;52.184;8.690;2023-05-17T03:58:14;23.00;;;6.50;;
4055;SDS011;2043;52.184;8.690;2023-05-17T04:00:40;18.20;;;6.50;;
4055;SDS011;2043;52.184;8.690;2023-05-17T04:03:07;27.83;;;6.67;;
4055;SDS011;2043;52.184;8.690;2023-05-17T04:05:34;29.40;;;7.03;;
4055;SDS011;2043;52.184;8.690;2023-05-17T04:08:01;22.70;;;6.67;;
4055;SDS011;2043;52.184;8.690;2023-05-17T04:10:28;21.93;;;6.70;;
4055;SDS011;2043;52.184;8.690;2023-05-17T04:12:55;17.80;;;5.20;;
4055;SDS011;2043;52.184;8.690;2023-05-17T04:15:22;17.80;;;5.60;;
4055;SDS011;2043;52.184;8.690;2023-05-17T04:17:49;20.13;;;6.03;;
4055;SDS011;2043;52.184;8.690;2023-05-17T04:20:16;19.60;;;7.03;;
4055;SDS011;2043;52.184;8.690;2023-05-17T04:22:43;25.13;;;7.50;;
4055;SDS011;2043;52.184;8.690;2023-05-17T04:25:09;18.43;;;6.37;;
4055;SDS011;2043;52.184;8.690;2023-05-17T04:27:37;31.20;;;6.67;;
4055;SDS011;2043;52.184;8.690;2023-05-17T04:30:04;17.23;;;5.83;;
4055;SDS011;2043;52.184;8.690;2023-05-17T04:32:31;27.53;;;6.83;;
4055;SDS011;2043;52.184;8.690;2023-05-17T04:34:59;28.07;;;6.27;;
4055;SDS011;2043;52.184;8.690;2023-05-17T04:37:26;27.47;;;6.90;;
4055;SDS011;2043;52.184;8.690;2023-05-17T04:39:53;28.13;;;7.33;;
4055;SDS011;2043;52.184;8.690;2023-05-17T04:42:20;23.87;;;7.00;;
4055;SDS011;2043;52.184;8.690;2023-05-17T04:44:46;25.93;;;6.53;;
4055;SDS011;2043;52.184;8.690;2023-05-17T04:47:13;16.63;;;7.00;;
4055;SDS011;2043;52.184;8.690;2023-05-17T04:49:40;21.33;;;6.80;;
4055;SDS011;2043;52.184;8.690;2023-05-17T04:52:08;29.60;;;7.47;;
4055;SDS011;2043;52.184;8.690;2023-05-17T04:54:35;17.10;;;6.40;;
4055;SDS011;2043;52.184;8.690;2023-05-17T04:57:02;34.63;;;8.90;;
4055;SDS011;2043;52.184;8.690;2023-05-17T04:59:29;24.00;;;6.37;;
4055;SDS011;2043;52.184;8.690;2023-05-17T05:01:56;28.93;;;7.90;;
4055;SDS011;2043;52.184;8.690;2023-05-17T05:04:22;18.80;;;6.77;;
4055;SDS011;2043;52.184;8.690;2023-05-17T05:06:50;20.23;;;6.93;;
4055;SDS011;2043;52.184;8.690;2023-05-17T05:09:17;16.97;;;6.10;;
4055;SDS011;2043;52.184;8.690;2023-05-17T05:11:44;22.80;;;6.50;;
4055;SDS011;2043;52.184;8.690;2023-05-17T05:14:11;25.93;;;6.57;;
4055;SDS011;2043;52.184;8.690;2023-05-17T05:16:38;25.13;;;7.00;;
4055;SDS011;2043;52.184;8.690;2023-05-17T05:19:04;24.20;;;5.73;;
4055;SDS011;2043;52.184;8.690;2023-05-17T05:21:32;29.23;;;6.20;;
4055;SDS011;2043;52.184;8.690;2023-05-17T05:23:58;26.47;;;5.60;;
4055;SDS011;2043;52.184;8.690;2023-05-17T05:26:25;20.03;;;5.53;;
4055;SDS011;2043;52.184;8.690;2023-05-17T05:28:52;22.93;;;5.23;;
4055;SDS011;2043;52.184;8.690;2023-05-17T05:31:19;23.10;;;5.30;;
4055;SDS011;2043;52.184;8.690;2023-05-17T05:33:46;26.17;;;5.60;;
4055;SDS011;2043;52.184;8.690;2023-05-17T05:36:13;32.07;;;5.23;;
4055;SDS011;2043;52.184;8.690;2023-05-17T05:38:39;23.57;;;5.37;;
4055;SDS011;2043;52.184;8.690;2023-05-17T05:41:06;41.53;;;14.70;;
4055;SDS011;2043;52.184;8.690;2023-05-17T05:43:33;15.93;;;4.60;;
4055;SDS011;2043;52.184;8.690;2023-05-17T05:46:01;14.17;;;3.70;;
4055;SDS011;2043;52.184;8.690;2023-05-17T05:48:28;10.83;;;3.83;;
4055;SDS011;2043;52.184;8.690;2023-05-17T05:50:55;21.20;;;4.00;;
4055;SDS011;2043;52.184;8.690;2023-05-17T05:53:22;18.10;;;3.83;;
4055;SDS011;2043;52.184;8.690;2023-05-17T05:55:49;32.50;;;3.90;;
4055;SDS011;2043;52.184;8.690;2023-05-17T05:58:16;24.20;;;4.20;;
4055;SDS011;2043;52.184;8.690;2023-05-17T06:00:43;21.07;;;3.77;;
4055;SDS011;2043;52.184;8.690;2023-05-17T06:03:10;14.50;;;3.27;;
4055;SDS011;2043;52.184;8.690;2023-05-17T06:05:37;28.07;;;3.47;;
4055;SDS011;2043;52.184;8.690;2023-05-17T06:08:05;24.53;;;4.67;;
4055;SDS011;2043;52.184;8.690;2023-05-17T06:10:32;16.53;;;4.10;;
4055;SDS011;2043;52.184;8.690;2023-05-17T06:12:59;18.17;;;3.80;;
4055;SDS011;2043;52.184;8.690;2023-05-17T06:15:26;15.57;;;3.47;;
4055;SDS011;2043;52.184;8.690;2023-05-17T06:17:54;13.17;;;3.47;;
4055;SDS011;2043;52.184;8.690;2023-05-17T06:20:21;21.90;;;3.73;;
4055;SDS011;2043;52.184;8.690;2023-05-17T06:22:47;17.13;;;3.13;;
4055;SDS011;2043;52.184;8.690;2023-05-17T06:25:14;15.83;;;3.27;;
4055;SDS011;2043;52.184;8.690;2023-05-17T06:27:41;17.53;;;4.00;;
4055;SDS011;2043;52.184;8.690;2023-05-17T06:30:09;20.23;;;3.90;;
4055;SDS011;2043;52.184;8.690;2023-05-17T06:32:36;16.03;;;3.07;;
4055;SDS011;2043;52.184;8.690;2023-05-17T06:35:03;17.67;;;2.70;;
4055;SDS011;2043;52.184;8.690;2023-05-17T06:37:30;8.90;;;2.40;;
4055;SDS011;2043;52.184;8.690;2023-05-17T06:40:02;10.73;;;2.80;;
4055;SDS011;2043;52.184;8.690;2023-05-17T06:42:42;24.40;;;3.33;;
4055;SDS011;2043;52.184;8.690;2023-05-17T06:45:09;13.67;;;2.17;;
4055;SDS011;2043;52.184;8.690;2023-05-17T06:47:36;8.53;;;2.57;;
4055;SDS011;2043;52.184;8.690;2023-05-17T06:50:03;16.60;;;3.47;;
4055;SDS011;2043;52.184;8.690;2023-05-17T06:52:31;15.03;;;3.00;;
4055;SDS011;2043;52.184;8.690;2023-05-17T06:54:57;19.80;;;3.00;;
4055;SDS011;2043;52.184;8.690;2023-05-17T06:57:24;12.73;;;2.73;;
4055;SDS011;2043;52.184;8.690;2023-05-17T06:59:51;16.70;;;3.30;;
4055;SDS011;2043;52.184;8.690;2023-05-17T07:02:18;19.03;;;2.90;;
4055;SDS011;2043;52.184;8.690;2023-05-17T07:04:45;15.70;;;3.03;;
4055;SDS011;2043;52.184;8.690;2023-05-17T07:07:12;11.70;;;2.40;;
4055;SDS011;2043;52.184;8.690;2023-05-17T07:09:39;17.97;;;3.10;;
4055;SDS011;2043;52.184;8.690;2023-05-17T07:12:06;15.93;;;3.20;;
4055;SDS011;2043;52.184;8.690;2023-05-17T07:14:33;10.17;;;2.87;;
4055;SDS011;2043;52.184;8.690;2023-05-17T07:17:00;19.60;;;3.27;;
4055;SDS011;2043;52.184;8.690;2023-05-17T07:19:27;15.37;;;3.13;;
4055;SDS011;2043;52.184;8.690;2023-05-17T07:21:54;11.50;;;2.30;;
4055;SDS011;2043;52.184;8.690;2023-05-17T07:24:21;13.20;;;3.30;;
4055;SDS011;2043;52.184;8.690;2023-05-17T07:26:48;14.27;;;3.53;;
4055;SDS011;2043;52.184;8.690;2023-05-17T07:29:18;15.93;;;2.47;;
4055;SDS011;2043;52.184;8.690;2023-05-17T07:31:44;16.53;;;2.60;;
4055;SDS011;2043;52.184;8.690;2023-05-17T07:34:12;13.37;;;2.50;;
4055;SDS011;2043;52.184;8.690;2023-05-17T07:36:41;11.60;;;3.00;;
4055;SDS011;2043;52.184;8.690;2023-05-17T07:39:08;11.20;;;2.43;;
4055;SDS011;2043;52.184;8.690;2023-05-17T07:41:35;11.43;;;2.83;;
4055;SDS011;2043;52.184;8.690;2023-05-17T07:44:02;10.10;;;2.40;;
4055;SDS011;2043;52.184;8.690;2023-05-17T07:46:29;10.77;;;3.07;;
4055;SDS011;2043;52.184;8.690;2023-05-17T07:48:56;14.70;;;4.00;;
4055;SDS011;2043;52.184;8.690;2023-05-17T07:51:24;17.77;;;3.50;;
4055;SDS011;2043;52.184;8.690;2023-05-17T07:53:51;9.47;;;2.23;;
4055;SDS011;2043;52.184;8.690;2023-05-17T07:56:18;10.53;;;2.60;;
4055;SDS011;2043;52.184;8.690;2023-05-17T07:58:45;14.10;;;2.90;;
4055;SDS011;2043;52.184;8.690;2023-05-17T08:01:12;9.83;;;2.20;;
4055;SDS011;2043;52.184;8.690;2023-05-17T08:03:39;15.43;;;2.90;;
4055;SDS011;2043;52.184;8.690;2023-05-17T08:06:15;14.00;;;2.73;;
4055;SDS011;2043;52.184;8.690;2023-05-17T08:08:43;17.20;;;3.03;;
4055;SDS011;2043;52.184;8.690;2023-05-17T08:11:10;14.83;;;3.00;;
4055;SDS011;2043;52.184;8.690;2023-05-17T08:13:38;9.10;;;2.80;;
4055;SDS011;2043;52.184;8.690;2023-05-17T08:16:05;15.20;;;2.40;;
4055;SDS011;2043;52.184;8.690;2023-05-17T08:18:40;8.50;;;2.13;;
4055;SDS011;2043;52.184;8.690;2023-05-17T08:21:08;7.90;;;2.40;;
4055;SDS011;2043;52.184;8.690;2023-05-17T08:23:35;17.80;;;2.83;;
4055;SDS011;2043;52.184;8.690;2023-05-17T08:26:02;13.40;;;2.93;;
4055;SDS011;2043;52.184;8.690;2023-05-17T08:28:28;11.13;;;2.60;;
4055;SDS011;2043;52.184;8.690;2023-05-17T08:30:55;8.30;;;2.40;;
4055;SDS011;2043;52.184;8.690;2023-05-17T08:33:23;31.53;;;3.00;;
4055;SDS011;2043;52.184;8.690;2023-05-17T08:35:51;12.27;;;3.03;;
4055;SDS011;2043;52.184;8.690;2023-05-17T08:38:20;11.67;;;2.80;;
4055;SDS011;2043;52.184;8.690;2023-05-17T08:40:53;10.13;;;2.60;;
4055;SDS011;2043;52.184;8.690;2023-05-17T08:43:21;13.90;;;2.40;;
4055;SDS011;2043;52.184;8.690;2023-05-17T08:45:52;7.07;;;2.20;;
4055;SDS011;2043;52.184;8.690;2023-05-17T08:48:23;17.60;;;2.67;;
4055;SDS011;2043;52.184;8.690;2023-05-17T08:50:52;14.93;;;2.57;;
4055;SDS011;2043;52.184;8.690;2023-05-17T08:53:21;13.30;;;3.23;;
4055;SDS011;2043;52.184;8.690;2023-05-17T08:55:48;12.60;;;2.63;;
4055;SDS011;2043;52.184;8.690;2023-05-17T08:58:18;14.60;;;2.53;;
4055;SDS011;2043;52.184;8.690;2023-05-17T09:00:50;7.20;;;2.30;;
4055;SDS011;2043;52.184;8.690;2023-05-17T09:03:18;14.23;;;2.93;;
4055;SDS011;2043;52.184;8.690;2023-05-17T09:05:51;18.57;;;3.07;;
4055;SDS011;2043;52.184;8.690;2023-05-17T09:08:19;7.53;;;2.57;;
4055;SDS011;2043;52.184;8.690;2023-05-17T09:10:47;13.20;;;2.73;;
4055;SDS011;2043;52.184;8.690;2023-05-17T09:13:15;17.20;;;2.63;;
4055;SDS011;2043;52.184;8.690;2023-05-17T09:15:43;11.70;;;2.87;;
4055;SDS011;2043;52.184;8.690;2023-05-17T09:18:12;14.27;;;3.20;;
4055;SDS011;2043;52.184;8.690;2023-05-17T09:20:46;19.97;;;2.60;;
4055;SDS011;2043;52.184;8.690;2023-05-17T09:23:17;14.73;;;2.73;;
4055;SDS011;2043;52.184;8.690;2023-05-17T09:25:49;13.10;;;2.83;;
4055;SDS011;2043;52.184;8.690;2023-05-17T09:28:17;10.53;;;2.80;;
4055;SDS011;2043;52.184;8.690;2023-05-17T09:30:47;18.07;;;2.90;;
4055;SDS011;2043;52.184;8.690;2023-05-17T09:33:14;11.40;;;2.90;;
4055;SDS011;2043;52.184;8.690;2023-05-17T09:35:44;13.40;;;2.60;;
4055;SDS011;2043;52.184;8.690;2023-05-17T09:38:11;16.63;;;2.90;;
4055;SDS011;2043;52.184;8.690;2023-05-17T09:43:06;16.27;;;3.40;;
4055;SDS011;2043;52.184;8.690;2023-05-17T09:45:34;12.53;;;4.50;;
4055;SDS011;2043;52.184;8.690;2023-05-17T09:50:46;12.50;;;2.57;;
4055;SDS011;2043;52.184;8.690;2023-05-17T09:53:48;9.10;;;3.13;;
4055;SDS011;2043;52.184;8.690;2023-05-17T09:56:08;30.80;;;3.60;;
4055;SDS011;2043;52.184;8.690;2023-05-17T09:58:36;13.97;;;2.30;;
4055;SDS011;2043;52.184;8.690;2023-05-17T10:01:03;11.70;;;2.70;;
4055;SDS011;2043;52.184;8.690;2023-05-17T10:03:35;14.43;;;3.00;;
4055;SDS011;2043;52.184;8.690;2023-05-17T10:06:06;12.57;;;2.93;;
4055;SDS011;2043;52.184;8.690;2023-05-17T10:08:45;10.97;;;2.90;;
4055;SDS011;2043;52.184;8.690;2023-05-17T10:11:16;12.73;;;2.83;;
4055;SDS011;2043;52.184;8.690;2023-05-17T10:13:48;14.73;;;2.90;;
4055;SDS011;2043;52.184;8.690;2023-05-17T10:16:32;10.87;;;2.80;;
4055;SDS011;2043;52.184;8.690;2023-05-17T10:19:00;13.37;;;2.80;;
4055;SDS011;2043;52.184;8.690;2023-05-17T10:21:29;10.57;;;3.13;;
4055;SDS011;2043;52.184;8.690;2023-05-17T10:24:03;13.07;;;2.83;;
4055;SDS011;2043;52.184;8.690;2023-05-17T10:26:31;11.10;;;2.77;;
4055;SDS011;2043;52.184;8.690;2023-05-17T10:28:59;16.63;;;3.30;;
4055;SDS011;2043;52.184;8.690;2023-05-17T10:31:31;16.23;;;2.60;;
4055;SDS011;2043;52.184;8.690;2023-05-17T10:34:02;10.07;;;2.97;;
4055;SDS011;2043;52.184;8.690;2023-05-17T10:36:31;16.63;;;2.80;;
4055;SDS011;2043;52.184;8.690;2023-05-17T10:38:59;14.03;;;3.07;;
4055;SDS011;2043;52.184;8.690;2023-05-17T10:41:31;26.13;;;3.17;;
4055;SDS011;2043;52.184;8.690;2023-05-17T10:44:01;9.33;;;2.80;;
4055;SDS011;2043;52.184;8.690;2023-05-17T10:46:30;15.03;;;2.63;;
4055;SDS011;2043;52.184;8.690;2023-05-17T10:48:57;11.00;;;2.93;;
4055;SDS011;2043;52.184;8.690;2023-05-17T10:51:29;11.83;;;2.53;;
4055;SDS011;2043;52.184;8.690;2023-05-17T10:54:03;12.80;;;2.80;;
4055;SDS011;2043;52.184;8.690;2023-05-17T10:56:40;14.60;;;3.23;;
4055;SDS011;2043;52.184;8.690;2023-05-17T10:59:15;7.60;;;2.27;;
4055;SDS011;2043;52.184;8.690;2023-05-17T11:01:48;11.47;;;2.90;;
4055;SDS011;2043;52.184;8.690;2023-05-17T11:04:36;14.50;;;3.20;;
4055;SDS011;2043;52.184;8.690;2023-05-17T11:09:55;10.30;;;2.33;;
4055;SDS011;2043;52.184;8.690;2023-05-17T11:12:29;10.03;;;2.60;;
4055;SDS011;2043;52.184;8.690;2023-05-17T12:04:10;13.87;;;3.20;;
4055;SDS011;2043;52.184;8.690;2023-05-17T12:06:37;14.57;;;2.80;;
4055;SDS011;2043;52.184;8.690;2023-05-17T12:09:05;13.43;;;3.03;;
4055;SDS011;2043;52.184;8.690;2023-05-17T12:11:36;19.50;;;4.47;;
4055;SDS011;2043;52.184;8.690;2023-05-17T12:14:06;14.80;;;3.37;;
4055;SDS011;2043;52.184;8.690;2023-05-17T12:16:33;10.63;;;3.10;;
4055;SDS011;2043;52.184;8.690;2023-05-17T12:19:02;14.73;;;3.27;;
4055;SDS011;2043;52.184;8.690;2023-05-17T12:21:29;13.40;;;2.77;;
4055;SDS011;2043;52.184;8.690;2023-05-17T12:23:56;10.40;;;3.20;;
4055;SDS011;2043;52.184;8.690;2023-05-17T12:26:23;10.97;;;2.83;;
4055;SDS011;2043;52.184;8.690;2023-05-17T12:31:27;7.87;;;3.03;;
4055;SDS011;2043;52.184;8.690;2023-05-17T12:33:55;17.20;;;3.10;;
4055;SDS011;2043;52.184;8.690;2023-05-17T12:36:24;12.20;;;3.10;;
4055;SDS011;2043;52.184;8.690;2023-05-17T12:38:54;15.63;;;3.13;;
4055;SDS011;2043;52.184;8.690;2023-05-17T12:41:22;16.67;;;2.77;;
4055;SDS011;2043;52.184;8.690;2023-05-17T12:43:53;13.30;;;3.20;;
4055;SDS011;2043;52.184;8.690;2023-05-17T12:46:39;12.73;;;3.60;;
4055;SDS011;2043;52.184;8.690;2023-05-17T12:49:06;7.57;;;2.60;;
4055;SDS011;2043;52.184;8.690;2023-05-17T12:51:41;11.33;;;2.90;;
4055;SDS011;2043;52.184;8.690;2023-05-17T12:54:11;11.40;;;3.00;;
4055;SDS011;2043;52.184;8.690;2023-05-17T12:56:42;9.70;;;2.50;;
4055;SDS011;2043;52.184;8.690;2023-05-17T13:01:46;11.10;;;2.73;;
4055;SDS011;2043;52.184;8.690;2023-05-17T13:04:14;9.90;;;3.33;;
4055;SDS011;2043;52.184;8.690;2023-05-17T13:09:10;9.40;;;2.57;;
4055;SDS011;2043;52.184;8.690;2023-05-17T13:11:37;11.93;;;4.13;;
4055;SDS011;2043;52.184;8.690;2023-05-17T13:14:07;9.90;;;3.27;;
4055;SDS011;2043;52.184;8.690;2023-05-17T13:16:37;11.87;;;3.63;;
4055;SDS011;2043;52.184;8.690;2023-05-17T13:19:14;13.23;;;2.83;;
4055;SDS011;2043;52.184;8.690;2023-05-17T13:21:41;10.87;;;3.30;;
4055;SDS011;2043;52.184;8.690;2023-05-17T13:24:08;15.33;;;3.33;;
4055;SDS011;2043;52.184;8.690;2023-05-17T13:26:36;16.17;;;3.20;;
4055;SDS011;2043;52.184;8.690;2023-05-17T13:29:03;17.93;;;3.20;;
4055;SDS011;2043;52.184;8.690;2023-05-17T13:31:29;10.83;;;3.17;;
4055;SDS011;2043;52.184;8.690;2023-05-17T13:33:56;19.40;;;3.10;;
4055;SDS011;2043;52.184;8.690;2023-05-17T13:36:24;11.23;;;2.90;;
4055;SDS011;2043;52.184;8.690;2023-05-17T13:38:51;13.20;;;3.00;;
4055;SDS011;2043;52.184;8.690;2023-05-17T13:41:19;13.20;;;3.10;;
4055;SDS011;2043;52.184;8.690;2023-05-17T13:43:45;10.33;;;2.70;;
4055;SDS011;2043;52.184;8.690;2023-05-17T13:46:15;9.07;;;2.47;;
4055;SDS011;2043;52.184;8.690;2023-05-17T13:48:42;8.13;;;2.60;;
4055;SDS011;2043;52.184;8.690;2023-05-17T13:51:09;12.30;;;3.47;;
4055;SDS011;2043;52.184;8.690;2023-05-17T13:53:38;9.97;;;2.90;;
4055;SDS011;2043;52.184;8.690;2023-05-17T13:56:06;12.33;;;3.27;;
4055;SDS011;2043;52.184;8.690;2023-05-17T13:58:33;11.57;;;3.13;;
4055;SDS011;2043;52.184;8.690;2023-05-17T14:01:00;16.20;;;3.07;;
4055;SDS011;2043;52.184;8.690;2023-05-17T14:03:27;10.23;;;2.73;;
4055;SDS011;2043;52.184;8.690;2023-05-17T14:05:54;16.93;;;3.30;;
4055;SDS011;2043;52.184;8.690;2023-05-17T14:08:21;11.90;;;3.90;;
4055;SDS011;2043;52.184;8.690;2023-05-17T14:10:48;10.00;;;3.07;;
4055;SDS011;2043;52.184;8.690;2023-05-17T14:13:15;12.70;;;2.80;;
4055;SDS011;2043;52.184;8.690;2023-05-17T14:15:41;7.17;;;2.80;;
4055;SDS011;2043;52.184;8.690;2023-05-17T14:18:08;15.03;;;3.30;;
4055;SDS011;2043;52.184;8.690;2023-05-17T14:20:36;10.10;;;3.10;;
4055;SDS011;2043;52.184;8.690;2023-05-17T14:23:02;12.40;;;3.20;;
4055;SDS011;2043;52.184;8.690;2023-05-17T14:25:29;9.23;;;2.97;;
4055;SDS011;2043;52.184;8.690;2023-05-17T14:27:56;10.70;;;3.47;;
4055;SDS011;2043;52.184;8.690;2023-05-17T14:30:23;9.87;;;3.07;;
4055;SDS011;2043;52.184;8.690;2023-05-17T14:32:51;9.57;;;2.90;;
4055;SDS011;2043;52.184;8.690;2023-05-17T14:35:18;11.03;;;2.60;;
4055;SDS011;2043;52.184;8.690;2023-05-17T14:37:44;8.30;;;2.60;;
4055;SDS011;2043;52.184;8.690;2023-05-17T14:40:11;14.33;;;2.87;;
4055;SDS011;2043;52.184;8.690;2023-05-17T14:42:38;9.30;;;2.80;;
4055;SDS011;2043;52.184;8.690;2023-05-17T14:45:06;10.70;;;3.10;;
4055;SDS011;2043;52.184;8.690;2023-05-17T14:47:34;10.80;;;2.53;;
4055;SDS011;2043;52.184;8.690;2023-05-17T14:50:02;8.73;;;3.03;;
4055;SDS011;2043;52.184;8.690;2023-05-17T14:52:29;12.53;;;3.10;;
4055;SDS011;2043;52.184;8.690;2023-05-17T14:54:56;11.10;;;2.70;;
4055;SDS011;2043;52.184;8.690;2023-05-17T14:57:23;8.60;;;2.70;;
4055;SDS011;2043;52.184;8.690;2023-05-17T14:59:51;8.70;;;3.00;;
4055;SDS011;2043;52.184;8.690;2023-05-17T15:02:18;12.23;;;3.60;;
4055;SDS011;2043;52.184;8.690;2023-05-17T15:04:45;16.97;;;3.20;;
4055;SDS011;2043;52.184;8.690;2023-05-17T15:07:12;10.33;;;2.90;;
4055;SDS011;2043;52.184;8.690;2023-05-17T15:09:40;8.20;;;2.60;;
4055;SDS011;2043;52.184;8.690;2023-05-17T15:12:08;15.17;;;3.50;;
4055;SDS011;2043;52.184;8.690;2023-05-17T15:14:39;13.60;;;3.13;;
4055;SDS011;2043;52.184;8.690;2023-05-17T15:17:06;10.10;;;2.90;;
4055;SDS011;2043;52.184;8.690;2023-05-17T15:19:33;6.67;;;2.60;;
4055;SDS011;2043;52.184;8.690;2023-05-17T15:22:00;9.73;;;3.17;;
4055;SDS011;2043;52.184;8.690;2023-05-17T15:24:27;14.20;;;3.50;;
4055;SDS011;2043;52.184;8.690;2023-05-17T15:26:54;8.37;;;2.77;;
4055;SDS011;2043;52.184;8.690;2023-05-17T15:29:22;9.07;;;3.00;;
4055;SDS011;2043;52.184;8.690;2023-05-17T15:31:48;8.53;;;3.00;;
4055;SDS011;2043;52.184;8.690;2023-05-17T15:34:15;10.47;;;2.90;;
4055;SDS011;2043;52.184;8.690;2023-05-17T15:36:42;8.17;;;3.10;;
4055;SDS011;2043;52.184;8.690;2023-05-17T15:39:09;7.23;;;2.80;;
4055;SDS011;2043;52.184;8.690;2023-05-17T15:41:36;9.00;;;3.10;;
4055;SDS011;2043;52.184;8.690;2023-05-17T15:44:04;8.77;;;3.10;;
4055;SDS011;2043;52.184;8.690;2023-05-17T15:46:31;11.77;;;3.00;;
4055;SDS011;2043;52.184;8.690;2023-05-17T15:48:58;11.90;;;4.47;;
4055;SDS011;2043;52.184;8.690;2023-05-17T15:51:24;15.17;;;2.93;;
4055;SDS011;2043;52.184;8.690;2023-05-17T15:53:51;11.80;;;2.90;;
4055;SDS011;2043;52.184;8.690;2023-05-17T15:56:18;7.87;;;2.83;;
4055;SDS011;2043;52.184;8.690;2023-05-17T15:58:46;8.20;;;2.63;;
4055;SDS011;2043;52.184;8.690;2023-05-17T16:01:13;11.43;;;3.07;;
4055;SDS011;2043;52.184;8.690;2023-05-17T16:03:40;12.37;;;3.50;;
4055;SDS011;2043;52.184;8.690;2023-05-17T16:06:07;7.27;;;2.67;;
4055;SDS011;2043;52.184;8.690;2023-05-17T16:08:34;12.17;;;3.07;;
4055;SDS011;2043;52.184;8.690;2023-05-17T16:11:01;8.80;;;3.03;;
4055;SDS011;2043;52.184;8.690;2023-05-17T16:13:28;11.47;;;2.90;;
4055;SDS011;2043;52.184;8.690;2023-05-17T16:15:56;9.93;;;3.40;;
4055;SDS011;2043;52.184;8.690;2023-05-17T16:18:24;10.30;;;2.77;;
4055;SDS011;2043;52.184;8.690;2023-05-17T16:20:58;7.10;;;2.80;;
4055;SDS011;2043;52.184;8.690;2023-05-17T16:23:27;7.70;;;2.90;;
4055;SDS011;2043;52.184;8.690;2023-05-17T16:25:54;14.63;;;2.70;;
4055;SDS011;2043;52.184;8.690;2023-05-17T16:28:22;10.00;;;2.87;;
4055;SDS011;2043;52.184;8.690;2023-05-17T16:30:49;8.93;;;2.77;;